Latest Coastal Weather Observations for Double Island Point

IDQ60701

Issued at 8:12 pm EST Sunday 4 December 2016 (issued every 10 minutes, with the page automatically refreshed every 10 minutes)

About coastal observations | Map of coastal stations | Coastal observations for QLD | Marine services | Other Formats
Station Details ID: 040068 Name: DOUBLE ISLAND POINT LIGHTHOUSE Lat: -25.93 Lon: 153.19 Height: 95.64 m
Data from the previous 72 hours. | See also: Recent months at Double Island Point
Date/Time
EST
Temp
°C
Wind Pressure Rain since
9am
mm
Weather Cloud Vis
km
Sea
Height
m
Swell
Dir  Spd
kts
Gust
kts
hPa Trend Height
m
Period
s
Dir
04/08:00pm - NNW 10 21 1013.9 - 0.0 - - - - - - -
04/07:30pm - NNW 10 18 1013.7 - 0.0 - - - - - - -
04/07:00pm - N 12 22 1013.6 - 0.0 - - - - - - -
04/06:30pm - N 15 25 1013.4 - 0.0 - - - - - - -
04/06:02pm - N 17 27 1013.2 - 0.0 - - - - - - -
04/06:00pm - N 18 27 1013.1 - 0.0 - - - - - - -
04/05:30pm - N 19 27 1013.0 - 0.0 - - - - - - -
04/05:00pm - NNE 23 30 1012.9 - 0.0 - - - - - - -
04/04:30pm - N 20 27 1012.9 - 0.0 - - - - - - -
04/04:00pm - NNE 22 28 1012.9 - 0.0 - - - - - - -
04/03:30pm - NNE 24 30 1012.8 - 0.0 - - - - - - -
04/03:00pm - NNE 23 27 1012.9 - 0.0 - - - - - - -
04/02:30pm - NNE 21 27 1013.2 - 0.0 - - - - - - -
04/02:00pm - NNE 21 25 1013.6 - 0.0 - - - - - - -
04/01:30pm - NNE 20 23 1013.9 - 0.0 - - - - - - -
04/01:00pm - NNE 19 23 1014.2 - 0.0 - - - - - - -
04/12:30pm - NNE 20 24 1014.2 - 0.0 - - - - - - -
04/12:00pm - N 16 23 1014.6 - 0.0 - - - - - - -
04/11:30am - N 15 22 1015.1 - 0.0 - - - - - - -
04/11:00am - N 14 21 1015.6 - 0.0 - - - - - - -
04/10:30am - N 13 20 1015.8 - 0.0 - - - - - - -
04/10:00am - N 12 17 1016.1 - 0.0 - - - - - - -
04/09:30am - N 10 17 1016.2 - 0.0 - - - - - - -
04/09:00am - NNW 5 10 1016.1 - 4.6 - - - - - - -
04/08:30am - N 4 7 1016.4 - 4.6 - - - - - - -
04/08:00am - NNW 4 6 1016.4 - 4.6 - - - - - - -
04/07:30am - NNW 4 7 1015.9 - 4.6 - - - - - - -
04/07:00am - N 1 3 1015.9 - 4.6 - - - - - - -
04/06:30am - NNE 3 5 1015.9 - 4.6 - - - - - - -
04/06:00am - S 3 5 1015.8 - 4.6 - - - - - - -
04/05:30am - S 2 7 1015.7 - 4.6 - - - - - - -
04/05:00am - NNW 3 7 1014.5 - 4.6 - - - - - - -
04/04:30am - WNW 13 19 1013.5 - 4.6 - - - - - - -
04/04:00am - WNW 19 24 1012.5 - 4.6 - - - - - - -
04/03:30am - NW 16 19 1012.7 - 4.6 - - - - - - -
04/03:00am - NW 10 13 1013.2 - 4.6 - - - - - - -
04/02:30am - NW 9 12 1013.3 - 4.6 - - - - - - -
04/02:00am - NW 12 15 1013.5 - 4.6 - - - - - - -
04/01:30am - NNW 8 13 1014.0 - 4.6 - - - - - - -
04/01:00am - NNW 6 10 1014.2 - 4.6 - - - - - - -
04/12:30am - NNW 6 12 1014.5 - 4.6 - - - - - - -
04/12:00am - NNW 5 9 1014.7 - 4.6 Recent precip. - - - - - -
 
Date/Time
EST
Temp
°C
Wind Pressure Rain since
9am
mm
Weather Cloud Vis
km
Sea
Height
m
Swell
Dir  Spd
kts
Gust
kts
hPa Trend Height
m
Period
s
Dir
03/11:30pm - N 10 13 1014.7 - 4.6 - - - - - - -
03/11:04pm - NNE 30 42 1014.5 - 4.4 - - - - - - -
03/11:03pm - NNE 32 42 1014.0 - 4.4 - - - - - - -
03/11:00pm - NNE 35 42 1012.9 - 4.4 - - - - - - -
03/10:54pm - NNE 33 42 1013.7 - 4.4 - - - - - - -
03/10:45pm - NNE 27 35 1015.5 - 4.2 - - - - - - -
03/10:33pm - NE 15 25 1016.1 - 4.0 - - - - - - -
03/10:30pm - NE 16 22 1016.5 - 3.8 - - - - - - -
03/10:25pm - ENE 18 22 1017.8 - 3.4 - - - - - - -
03/10:00pm - ESE 15 17 1019.9 - 2.0 - - - - - - -
03/09:30pm - ESE 13 15 1019.5 - 0.4 - - - - - - -
03/09:00pm - SE 14 17 1019.5 - 0.0 - - - - - - -
03/08:35pm - S 18 24 1018.9 - 0.0 - - - - - - -
03/08:30pm - S 21 26 1018.9 - 0.0 - - - - - - -
03/08:03pm - NNW 9 30 1017.9 - 0.0 - - - - - - -
03/08:00pm - N 9 21 1016.7 - 0.0 - - - - - - -
03/07:58pm - N 11 22 1015.5 - 0.0 - - - - - - -
03/07:40pm - N 15 27 1013.5 - 0.0 - - - - - - -
03/07:30pm - N 14 24 1013.9 - 0.0 - - - - - - -
03/07:24pm - N 14 26 1013.8 - 0.0 - - - - - - -
03/07:00pm - N 12 23 1011.7 - 0.0 - - - - - - -
03/06:30pm - NNW 11 23 1011.6 - 0.0 - - - - - - -
03/06:00pm - NNW 12 24 1011.4 - 0.0 - - - - - - -
03/05:30pm - N 14 25 1011.6 - 0.0 - - - - - - -
03/05:00pm - NNW 11 20 1011.4 - 0.0 - - - - - - -
03/04:30pm - N 15 25 1011.0 - 0.0 - - - - - - -
03/04:00pm - N 16 26 1011.0 - 0.0 - - - - - - -
03/03:39pm - N 22 32 1011.0 - 0.0 - - - - - - -
03/03:30pm - N 22 31 1011.2 - 0.0 - - - - - - -
03/03:28pm - N 21 31 1011.2 - 0.0 - - - - - - -
03/03:00pm - N 23 29 1011.8 - 0.0 - - - - - - -
03/02:30pm - NNE 23 28 1012.5 - 0.0 - - - - - - -
03/02:00pm - NNE 23 27 1012.9 - 0.0 - - - - - - -
03/01:30pm - NNE 23 28 1013.2 - 0.0 - - - - - - -
03/01:00pm - NNE 22 25 1013.6 - 0.0 - - - - - - -
03/12:30pm - NNE 21 25 1013.9 - 0.0 - - - - - - -
03/12:00pm - NNE 20 24 1014.2 - 0.0 - - - - - - -
03/11:30am - NNE 19 23 1014.4 - 0.0 - - - - - - -
03/11:00am - N 19 23 1014.6 - 0.0 - - - - - - -
03/10:30am - N 17 21 1015.1 - 0.0 - - - - - - -
03/10:00am - N 13 18 1015.4 - 0.0 - - - - - - -
03/09:30am - N 9 15 1015.6 - 0.0 - - - - - - -
03/09:00am - NNW 5 11 1015.5 - 0.0 - - - - - - -
03/08:30am - N 4 11 1015.5 - 0.0 - - - - - - -
03/08:00am - N 4 5 1015.4 - 0.0 - - - - - - -
03/07:30am - N 4 6 1015.1 - 0.0 - - - - - - -
03/07:00am - NNW 4 7 1014.8 - 0.0 - - - - - - -
03/06:30am - N 3 5 1014.4 - 0.0 - - - - - - -
03/06:00am - N 4 6 1014.0 - 0.0 - - - - - - -
03/05:30am - N 3 6 1013.7 - 0.0 - - - - - - -
03/05:00am - NE 3 5 1013.5 - 0.0 - - - - - - -
03/04:30am - NNE 2 5 1013.4 - 0.0 - - - - - - -
03/04:00am - N 2 5 1013.0 - 0.0 - - - - - - -
03/03:30am - N 4 10 1012.2 - 0.0 - - - - - - -
03/03:00am - NNW 4 7 1011.9 - 0.0 - - - - - - -
03/02:30am - NNW 4 7 1012.0 - 0.0 - - - - - - -
03/02:00am - NNW 4 5 1012.5 - 0.0 - - - - - - -
03/01:30am - N 3 5 1012.7 - 0.0 - - - - - - -
03/01:00am - N 3 5 1012.8 - 0.0 - - - - - - -
03/12:30am - N 3 7 1013.0 - 0.0 - - - - - - -
03/12:00am - NNE 3 6 1013.4 - 0.0 - - - - - - -
 
Date/Time
EST
Temp
°C
Wind Pressure Rain since
9am
mm
Weather Cloud Vis
km
Sea
Height
m
Swell
Dir  Spd
kts
Gust
kts
hPa Trend Height
m
Period
s
Dir
02/11:30pm - N 3 6 1013.5 - 0.0 - - - - - - -
02/11:00pm - NNW 5 7 1013.6 - 0.0 - - - - - - -
02/10:30pm - N 4 6 1013.5 - 0.0 - - - - - - -
02/10:00pm - N 5 7 1013.4 - 0.0 - - - - - - -
02/09:30pm - N 5 7 1013.1 - 0.0 - - - - - - -
02/09:00pm - N 6 8 1012.7 - 0.0 - - - - - - -
02/08:30pm - N 7 10 1012.2 - 0.0 - - - - - - -
02/08:00pm - NNW 11 16 1012.0 - 0.0 - - - - - - -
02/07:30pm - N 5 8 1011.7 - 0.0 - - - - - - -
02/07:00pm - NNW 5 7 1011.2 - 0.0 - - - - - - -
02/06:30pm - N 6 12 1010.9 - 0.0 - - - - - - -
02/06:00pm - N 8 17 1010.5 - 0.0 - - - - - - -
02/05:30pm - N 11 20 1010.0 - 0.0 - - - - - - -
02/05:02pm - N 15 25 1009.7 - 0.0 - - - - - - -
02/05:00pm - N 14 25 1009.6 - 0.0 - - - - - - -
02/04:31pm - N 20 30 1009.6 - 0.0 - - - - - - -
02/04:30pm - N 21 30 1009.5 - 0.0 - - - - - - -
02/04:11pm - N 22 32 1009.5 - 0.0 - - - - - - -
02/04:00pm - N 23 31 1009.3 - 0.0 - - - - - - -
02/03:30pm - NNE 24 30 1009.7 - 0.0 - - - - - - -
02/03:00pm - NNE 22 28 1009.8 - 0.0 - - - - - - -
02/02:30pm - NNE 22 27 1009.9 - 0.0 - - - - - - -
02/02:00pm - NNE 23 27 1010.1 - 0.0 - - - - - - -
02/01:30pm - NNE 22 27 1010.4 - 0.0 - - - - - - -
02/01:00pm - NNE 22 27 1010.4 - 0.0 - - - - - - -
02/12:30pm - NNE 21 25 1010.8 - 0.0 - - - - - - -
02/12:00pm - NNE 21 24 1011.2 - 0.0 - - - - - - -
02/11:30am - N 12 21 1011.5 - 0.0 - - - - - - -
02/11:00am - N 10 17 1012.0 - 0.0 - - - - - - -
02/10:30am - N 4 6 1012.3 - 0.0 - - - - - - -
02/10:00am - NNW 5 7 1012.6 - 0.0 - - - - - - -
02/09:30am - NNW 5 7 1012.2 - 0.0 - - - - - - -
02/09:00am - N 4 6 1012.8 - 1.6 - - - - - - -
02/08:30am - NNW 5 9 1012.8 - 1.6 - - - - - - -
02/08:00am - N 4 7 1012.7 - 1.6 - - - - - - -
02/07:30am - NNW 4 7 1012.6 - 1.6 - - - - - - -
02/07:00am - NNW 5 7 1012.6 - 1.6 - - - - - - -
02/06:30am - NNE 3 6 1012.6 - 1.6 - - - - - - -
02/06:00am - N 4 8 1012.0 - 1.6 - - - - - - -
02/05:30am - N 6 9 1011.6 - 1.6 - - - - - - -
02/05:00am - N 6 11 1011.6 - 1.6 - - - - - - -
02/04:30am - N 6 9 1011.3 - 1.6 - - - - - - -
02/04:00am - NNW 5 8 1011.0 - 1.6 - - - - - - -
02/03:30am - N 5 9 1010.7 - 1.6 - - - - - - -
02/03:00am - N 4 8 1010.5 - 1.6 - - - - - - -
02/02:30am - N 5 10 1010.4 - 1.6 - - - - - - -
02/02:00am - N 5 8 1010.4 - 1.6 - - - - - - -
02/01:30am - N 5 7 1010.7 - 1.6 - - - - - - -
02/01:00am - N 6 10 1010.8 - 1.6 - - - - - - -
02/12:30am - N 5 11 1010.9 - 1.6 - - - - - - -
02/12:00am - NNW 5 10 1010.8 - 1.6 - - - - - - -
 
Date/Time
EST
Temp
°C
Wind Pressure Rain since
9am
mm
Weather Cloud Vis
km
Sea
Height
m
Swell
Dir  Spd
kts
Gust
kts
hPa Trend Height
m
Period
s
Dir
01/11:30pm - N 5 8 1011.0 - 1.6 - - - - - - -
01/11:00pm - NNE 5 8 1011.4 - 1.6 - - - - - - -
01/10:30pm - NNW 7 12 1011.1 - 1.6 - - - - - - -
01/10:10pm - N 11 23 1010.5 - 1.6 - - - - - - -
01/10:00pm - NNW 5 10 1011.4 - 1.6 - - - - - - -
01/09:31pm - N 17 27 1011.2 - 1.6 - - - - - - -
01/09:30pm - N 17 27 1011.2 - 1.6 - - - - - - -
01/09:00pm - N 10 20 1011.1 - 1.6 Rain - - - - - -
01/08:30pm - ENE 19 28 1011.4 - 1.4 - - - - - - -

Other Formats:

Comma delimited format used in spreadsheet applications
http://www.bom.gov.au/fwo/IDQ60701/IDQ60701.94584.axf

JavaScript Object Notation format (JSON) in row-major order
http://www.bom.gov.au/fwo/IDQ60701/IDQ60701.94584.json